sensor_id;sensor_type;location;lat;lon;timestamp;pressure;altitude;pressure_sealevel;temperature;humidity
7906;BME280;13291;40.472;-3.878;2023-06-26T00:00:02;52881.97;;;-139.96;32.78
7906;BME280;13291;40.472;-3.878;2023-06-26T00:02:30;52893.97;;;-139.96;32.90
7906;BME280;13291;40.472;-3.878;2023-06-26T00:04:58;52889.97;;;-139.96;32.28
7906;BME280;13291;40.472;-3.878;2023-06-26T00:07:28;52879.97;;;-139.96;32.72
7906;BME280;13291;40.472;-3.878;2023-06-26T00:09:55;52861.97;;;-139.96;32.49
7906;BME280;13291;40.472;-3.878;2023-06-26T00:12:22;52901.97;;;-139.96;32.36
7906;BME280;13291;40.472;-3.878;2023-06-26T00:14:50;52861.97;;;-139.96;32.43
7906;BME280;13291;40.472;-3.878;2023-06-26T00:17:17;52891.97;;;-139.96;32.63
7906;BME280;13291;40.472;-3.878;2023-06-26T00:19:44;52885.97;;;-139.96;32.72
7906;BME280;13291;40.472;-3.878;2023-06-26T00:22:11;52895.97;;;-139.96;32.90
7906;BME280;13291;40.472;-3.878;2023-06-26T00:24:38;52899.97;;;-139.96;32.97
7906;BME280;13291;40.472;-3.878;2023-06-26T00:27:05;52857.97;;;-139.96;33.20
7906;BME280;13291;40.472;-3.878;2023-06-26T00:29:32;52875.97;;;-139.96;32.94
7906;BME280;13291;40.472;-3.878;2023-06-26T00:32:01;52875.97;;;-139.96;33.34
7906;BME280;13291;40.472;-3.878;2023-06-26T00:34:27;52881.97;;;-139.96;33.49
7906;BME280;13291;40.472;-3.878;2023-06-26T00:36:54;52905.97;;;-139.96;33.26
7906;BME280;13291;40.472;-3.878;2023-06-26T00:39:21;52887.97;;;-139.96;33.39
7906;BME280;13291;40.472;-3.878;2023-06-26T00:41:51;52893.97;;;-139.96;33.61
7906;BME280;13291;40.472;-3.878;2023-06-26T00:44:19;52881.97;;;-139.96;33.49
7906;BME280;13291;40.472;-3.878;2023-06-26T00:46:46;52881.97;;;-139.96;33.73
7906;BME280;13291;40.472;-3.878;2023-06-26T00:49:14;52881.97;;;-139.96;33.97
7906;BME280;13291;40.472;-3.878;2023-06-26T00:51:41;52885.97;;;-139.96;33.78
7906;BME280;13291;40.472;-3.878;2023-06-26T00:54:08;52889.97;;;-139.96;34.15
7906;BME280;13291;40.472;-3.878;2023-06-26T00:56:35;52915.97;;;-139.96;34.26
7906;BME280;13291;40.472;-3.878;2023-06-26T00:59:02;52887.97;;;-139.96;34.45
7906;BME280;13291;40.472;-3.878;2023-06-26T01:01:29;52895.97;;;-139.96;34.16
7906;BME280;13291;40.472;-3.878;2023-06-26T01:03:56;52923.97;;;-139.96;34.48
7906;BME280;13291;40.472;-3.878;2023-06-26T01:06:26;52897.97;;;-139.96;34.07
7906;BME280;13291;40.472;-3.878;2023-06-26T01:08:55;52905.97;;;-139.96;34.23
7906;BME280;13291;40.472;-3.878;2023-06-26T01:11:22;52911.97;;;-139.96;34.30
7906;BME280;13291;40.472;-3.878;2023-06-26T01:13:49;52897.97;;;-139.96;33.92
7906;BME280;13291;40.472;-3.878;2023-06-26T01:16:18;52889.97;;;-139.96;34.52
7906;BME280;13291;40.472;-3.878;2023-06-26T01:18:45;52905.97;;;-139.96;34.35
7906;BME280;13291;40.472;-3.878;2023-06-26T01:21:14;52907.97;;;-139.96;34.23
7906;BME280;13291;40.472;-3.878;2023-06-26T01:23:52;52921.97;;;-139.96;34.09
7906;BME280;13291;40.472;-3.878;2023-06-26T01:26:27;52897.97;;;-139.96;34.29
7906;BME280;13291;40.472;-3.878;2023-06-26T01:28:57;52879.97;;;-139.96;34.01
7906;BME280;13291;40.472;-3.878;2023-06-26T01:31:26;52861.97;;;-139.96;34.10
7906;BME280;13291;40.472;-3.878;2023-06-26T01:33:54;52901.97;;;-139.96;34.01
7906;BME280;13291;40.472;-3.878;2023-06-26T01:36:22;52933.97;;;-139.96;34.38
7906;BME280;13291;40.472;-3.878;2023-06-26T01:38:49;52939.97;;;-139.96;34.30
7906;BME280;13291;40.472;-3.878;2023-06-26T01:41:17;52927.97;;;-139.96;34.04
7906;BME280;13291;40.472;-3.878;2023-06-26T01:43:59;52887.97;;;-139.96;34.17
7906;BME280;13291;40.472;-3.878;2023-06-26T01:46:36;52923.97;;;-139.96;34.13
7906;BME280;13291;40.472;-3.878;2023-06-26T01:49:08;52897.97;;;-139.96;34.07
7906;BME280;13291;40.472;-3.878;2023-06-26T01:51:41;52901.97;;;-139.96;34.11
7906;BME280;13291;40.472;-3.878;2023-06-26T01:54:11;52901.97;;;-139.96;34.06
7906;BME280;13291;40.472;-3.878;2023-06-26T01:56:41;52913.97;;;-139.96;34.19
7906;BME280;13291;40.472;-3.878;2023-06-26T01:59:11;52887.97;;;-139.96;33.98
7906;BME280;13291;40.472;-3.878;2023-06-26T02:01:40;52897.97;;;-139.96;34.08
7906;BME280;13291;40.472;-3.878;2023-06-26T02:04:06;52901.97;;;-139.96;34.11
7906;BME280;13291;40.472;-3.878;2023-06-26T02:06:33;52899.97;;;-139.96;33.63
7906;BME280;13291;40.472;-3.878;2023-06-26T02:09:00;52917.97;;;-139.96;33.95
7906;BME280;13291;40.472;-3.878;2023-06-26T02:11:27;52913.97;;;-139.96;34.26
7906;BME280;13291;40.472;-3.878;2023-06-26T02:13:54;52919.97;;;-139.96;34.33
7906;BME280;13291;40.472;-3.878;2023-06-26T02:16:22;52895.97;;;-139.96;33.83
7906;BME280;13291;40.472;-3.878;2023-06-26T02:18:49;52897.97;;;-139.96;33.59
7906;BME280;13291;40.472;-3.878;2023-06-26T02:21:16;52911.97;;;-139.96;33.41
7906;BME280;13291;40.472;-3.878;2023-06-26T02:23:43;52929.97;;;-139.96;33.46
7906;BME280;13291;40.472;-3.878;2023-06-26T02:26:10;52941.97;;;-139.96;33.69
7906;BME280;13291;40.472;-3.878;2023-06-26T02:28:37;52921.97;;;-139.96;33.47
7906;BME280;13291;40.472;-3.878;2023-06-26T02:31:04;52909.97;;;-139.96;33.89
7906;BME280;13291;40.472;-3.878;2023-06-26T02:33:32;52921.97;;;-139.96;33.60
7906;BME280;13291;40.472;-3.878;2023-06-26T02:35:59;52925.97;;;-139.96;33.80
7906;BME280;13291;40.472;-3.878;2023-06-26T02:38:26;52889.97;;;-139.96;34.35
7906;BME280;13291;40.472;-3.878;2023-06-26T02:40:53;52913.97;;;-139.96;34.73
7906;BME280;13291;40.472;-3.878;2023-06-26T02:43:20;52879.97;;;-139.96;33.80
7906;BME280;13291;40.472;-3.878;2023-06-26T02:45:47;52923.97;;;-139.96;33.96
7906;BME280;13291;40.472;-3.878;2023-06-26T02:48:13;52907.97;;;-139.96;34.47
7906;BME280;13291;40.472;-3.878;2023-06-26T02:50:42;52929.97;;;-139.96;34.39
7906;BME280;13291;40.472;-3.878;2023-06-26T02:53:11;52907.97;;;-139.96;34.72
7906;BME280;13291;40.472;-3.878;2023-06-26T02:55:38;52891.97;;;-139.96;34.81
7906;BME280;13291;40.472;-3.878;2023-06-26T02:58:05;52917.97;;;-139.96;34.86
7906;BME280;13291;40.472;-3.878;2023-06-26T03:00:32;52921.97;;;-139.96;34.54
7906;BME280;13291;40.472;-3.878;2023-06-26T03:02:58;52901.97;;;-139.96;34.83
7906;BME280;13291;40.472;-3.878;2023-06-26T03:05:26;52913.97;;;-139.96;35.87
7906;BME280;13291;40.472;-3.878;2023-06-26T03:07:55;52913.97;;;-139.96;36.24
7906;BME280;13291;40.472;-3.878;2023-06-26T03:10:22;52903.97;;;-139.96;36.32
7906;BME280;13291;40.472;-3.878;2023-06-26T03:12:49;52941.97;;;-139.96;36.49
7906;BME280;13291;40.472;-3.878;2023-06-26T03:15:15;52911.97;;;-139.96;36.07
7906;BME280;13291;40.472;-3.878;2023-06-26T03:17:42;52933.97;;;-139.96;35.95
7906;BME280;13291;40.472;-3.878;2023-06-26T03:20:09;52935.97;;;-139.96;36.13
7906;BME280;13291;40.472;-3.878;2023-06-26T03:22:36;52917.97;;;-139.96;35.67
7906;BME280;13291;40.472;-3.878;2023-06-26T03:25:05;52917.97;;;-139.96;36.01
7906;BME280;13291;40.472;-3.878;2023-06-26T03:27:33;52919.97;;;-139.96;35.67
7906;BME280;13291;40.472;-3.878;2023-06-26T03:30:00;52921.97;;;-139.96;36.33
7906;BME280;13291;40.472;-3.878;2023-06-26T03:32:27;52919.97;;;-139.96;35.96
7906;BME280;13291;40.472;-3.878;2023-06-26T03:34:53;52913.97;;;-139.96;37.18
7906;BME280;13291;40.472;-3.878;2023-06-26T03:37:20;52941.97;;;-139.96;36.30
7906;BME280;13291;40.472;-3.878;2023-06-26T03:39:47;52909.97;;;-139.96;35.79
7906;BME280;13291;40.472;-3.878;2023-06-26T03:42:16;52929.97;;;-139.96;35.79
7906;BME280;13291;40.472;-3.878;2023-06-26T03:44:42;52949.97;;;-139.96;36.27
7906;BME280;13291;40.472;-3.878;2023-06-26T03:47:09;52929.97;;;-139.96;35.91
7906;BME280;13291;40.472;-3.878;2023-06-26T03:49:36;52937.97;;;-139.96;36.03
7906;BME280;13291;40.472;-3.878;2023-06-26T03:52:03;52949.97;;;-139.96;35.88
7906;BME280;13291;40.472;-3.878;2023-06-26T03:54:30;52933.97;;;-139.96;36.81
7906;BME280;13291;40.472;-3.878;2023-06-26T03:56:59;52919.97;;;-139.96;36.54
7906;BME280;13291;40.472;-3.878;2023-06-26T03:59:27;52913.97;;;-139.96;37.38
7906;BME280;13291;40.472;-3.878;2023-06-26T04:01:54;52917.97;;;-139.96;35.96
7906;BME280;13291;40.472;-3.878;2023-06-26T04:04:21;52897.97;;;-139.96;36.25
7906;BME280;13291;40.472;-3.878;2023-06-26T04:06:48;52931.97;;;-139.96;36.26
7906;BME280;13291;40.472;-3.878;2023-06-26T04:09:16;52915.97;;;-139.96;36.85
7906;BME280;13291;40.472;-3.878;2023-06-26T04:11:44;52933.97;;;-139.96;36.66
7906;BME280;13291;40.472;-3.878;2023-06-26T04:14:10;52921.97;;;-139.96;36.37
7906;BME280;13291;40.472;-3.878;2023-06-26T04:16:39;52915.97;;;-139.96;37.45
7906;BME280;13291;40.472;-3.878;2023-06-26T04:19:06;52947.97;;;-139.96;37.11
7906;BME280;13291;40.472;-3.878;2023-06-26T04:21:35;52933.97;;;-139.96;37.46
7906;BME280;13291;40.472;-3.878;2023-06-26T04:24:02;52961.97;;;-139.96;37.63
7906;BME280;13291;40.472;-3.878;2023-06-26T04:26:29;52963.97;;;-139.96;36.84
7906;BME280;13291;40.472;-3.878;2023-06-26T04:28:56;52949.97;;;-139.96;36.58
7906;BME280;13291;40.472;-3.878;2023-06-26T04:31:23;52931.97;;;-139.96;36.98
7906;BME280;13291;40.472;-3.878;2023-06-26T04:33:51;52925.97;;;-139.96;37.68
7906;BME280;13291;40.472;-3.878;2023-06-26T04:36:20;52941.97;;;-139.96;37.67
7906;BME280;13291;40.472;-3.878;2023-06-26T04:38:47;52951.97;;;-139.96;37.30
7906;BME280;13291;40.472;-3.878;2023-06-26T04:41:14;52917.97;;;-139.96;37.17
7906;BME280;13291;40.472;-3.878;2023-06-26T04:43:41;52925.97;;;-139.96;36.96
7906;BME280;13291;40.472;-3.878;2023-06-26T04:46:08;52929.97;;;-139.96;36.78
7906;BME280;13291;40.472;-3.878;2023-06-26T04:48:35;52933.97;;;-139.96;36.49
7906;BME280;13291;40.472;-3.878;2023-06-26T04:51:03;52915.97;;;-139.96;36.03
7906;BME280;13291;40.472;-3.878;2023-06-26T04:53:30;52943.97;;;-139.96;35.98
7906;BME280;13291;40.472;-3.878;2023-06-26T04:55:57;52931.97;;;-139.96;35.66
7906;BME280;13291;40.472;-3.878;2023-06-26T04:58:24;52947.97;;;-139.96;36.02
7906;BME280;13291;40.472;-3.878;2023-06-26T05:00:51;52941.97;;;-139.96;36.25
7906;BME280;13291;40.472;-3.878;2023-06-26T05:03:18;52937.97;;;-139.96;36.33
7906;BME280;13291;40.472;-3.878;2023-06-26T05:05:45;52943.97;;;-139.96;36.14
7906;BME280;13291;40.472;-3.878;2023-06-26T05:08:18;52933.97;;;-139.96;36.07
7906;BME280;13291;40.472;-3.878;2023-06-26T05:10:45;52943.97;;;-139.96;36.07
7906;BME280;13291;40.472;-3.878;2023-06-26T05:13:12;52939.97;;;-139.96;35.94
7906;BME280;13291;40.472;-3.878;2023-06-26T05:15:40;52937.97;;;-139.96;36.00
7906;BME280;13291;40.472;-3.878;2023-06-26T05:18:07;52943.97;;;-139.96;36.16
7906;BME280;13291;40.472;-3.878;2023-06-26T05:20:35;53001.97;;;-139.96;36.25
7906;BME280;13291;40.472;-3.878;2023-06-26T05:23:02;52931.97;;;-139.96;36.15
7906;BME280;13291;40.472;-3.878;2023-06-26T05:25:31;52921.97;;;-139.96;36.29
7906;BME280;13291;40.472;-3.878;2023-06-26T05:28:00;52937.97;;;-139.96;36.42
7906;BME280;13291;40.472;-3.878;2023-06-26T05:30:31;52955.97;;;-139.96;36.45
7906;BME280;13291;40.472;-3.878;2023-06-26T05:33:00;52943.97;;;-139.96;36.63
7906;BME280;13291;40.472;-3.878;2023-06-26T05:35:28;52955.97;;;-139.96;36.78
7906;BME280;13291;40.472;-3.878;2023-06-26T05:37:57;52943.97;;;-139.96;36.46
7906;BME280;13291;40.472;-3.878;2023-06-26T05:40:25;52917.97;;;-139.96;36.67
7906;BME280;13291;40.472;-3.878;2023-06-26T05:42:54;52949.97;;;-139.96;36.80
7906;BME280;13291;40.472;-3.878;2023-06-26T05:45:21;52953.97;;;-139.96;36.61
7906;BME280;13291;40.472;-3.878;2023-06-26T05:47:48;52935.97;;;-139.96;36.67
7906;BME280;13291;40.472;-3.878;2023-06-26T05:50:17;52961.97;;;-139.96;36.52
7906;BME280;13291;40.472;-3.878;2023-06-26T05:52:45;52951.97;;;-139.96;36.75
7906;BME280;13291;40.472;-3.878;2023-06-26T05:55:13;52965.97;;;-139.96;36.69
7906;BME280;13291;40.472;-3.878;2023-06-26T05:57:41;52957.97;;;-139.96;36.75
7906;BME280;13291;40.472;-3.878;2023-06-26T06:00:10;52937.97;;;-139.96;36.87
7906;BME280;13291;40.472;-3.878;2023-06-26T06:02:37;52947.97;;;-139.96;37.09
7906;BME280;13291;40.472;-3.878;2023-06-26T06:05:05;52919.97;;;-139.96;36.95
7906;BME280;13291;40.472;-3.878;2023-06-26T06:07:32;52941.97;;;-139.96;36.67
7906;BME280;13291;40.472;-3.878;2023-06-26T06:10:00;52927.97;;;-139.96;37.30
7906;BME280;13291;40.472;-3.878;2023-06-26T06:12:27;52937.97;;;-139.96;37.20
7906;BME280;13291;40.472;-3.878;2023-06-26T06:14:53;52911.97;;;-139.96;37.51
7906;BME280;13291;40.472;-3.878;2023-06-26T06:17:22;52925.97;;;-139.96;37.18
7906;BME280;13291;40.472;-3.878;2023-06-26T06:19:49;52937.97;;;-139.96;37.24
7906;BME280;13291;40.472;-3.878;2023-06-26T06:22:16;52945.97;;;-139.96;37.39
7906;BME280;13291;40.472;-3.878;2023-06-26T06:24:43;52909.97;;;-139.96;37.53
7906;BME280;13291;40.472;-3.878;2023-06-26T06:27:10;52933.97;;;-139.96;37.48
7906;BME280;13291;40.472;-3.878;2023-06-26T06:29:37;52945.97;;;-139.96;37.62
7906;BME280;13291;40.472;-3.878;2023-06-26T06:32:04;52947.97;;;-139.96;37.28
7906;BME280;13291;40.472;-3.878;2023-06-26T06:34:33;52941.97;;;-139.96;37.42
7906;BME280;13291;40.472;-3.878;2023-06-26T06:37:00;52921.97;;;-139.96;37.75
7906;BME280;13291;40.472;-3.878;2023-06-26T06:39:26;52963.97;;;-139.96;37.76
7906;BME280;13291;40.472;-3.878;2023-06-26T06:41:53;52929.97;;;-139.96;37.98
7906;BME280;13291;40.472;-3.878;2023-06-26T06:44:20;52967.97;;;-139.96;38.32
7906;BME280;13291;40.472;-3.878;2023-06-26T06:46:47;52977.97;;;-139.96;38.40
7906;BME280;13291;40.472;-3.878;2023-06-26T06:49:14;52943.97;;;-139.96;38.20
7906;BME280;13291;40.472;-3.878;2023-06-26T06:51:42;52967.97;;;-139.96;38.11
7906;BME280;13291;40.472;-3.878;2023-06-26T06:54:09;52921.97;;;-139.96;38.28
7906;BME280;13291;40.472;-3.878;2023-06-26T06:56:36;52959.97;;;-139.96;38.23
7906;BME280;13291;40.472;-3.878;2023-06-26T06:59:03;52959.97;;;-139.96;38.26
7906;BME280;13291;40.472;-3.878;2023-06-26T07:01:30;52945.97;;;-139.96;38.20
7906;BME280;13291;40.472;-3.878;2023-06-26T07:03:57;52953.97;;;-139.96;38.12
7906;BME280;13291;40.472;-3.878;2023-06-26T07:06:24;52949.97;;;-139.96;38.33
7906;BME280;13291;40.472;-3.878;2023-06-26T07:08:52;52937.97;;;-139.96;38.28
7906;BME280;13291;40.472;-3.878;2023-06-26T07:11:19;52939.97;;;-139.96;38.09
7906;BME280;13291;40.472;-3.878;2023-06-26T07:13:46;52917.97;;;-139.96;38.16
7906;BME280;13291;40.472;-3.878;2023-06-26T07:16:12;52965.97;;;-139.96;38.28
7906;BME280;13291;40.472;-3.878;2023-06-26T07:18:40;52923.97;;;-139.96;38.39
7906;BME280;13291;40.472;-3.878;2023-06-26T07:21:07;52961.97;;;-139.96;38.07
7906;BME280;13291;40.472;-3.878;2023-06-26T07:23:34;52953.97;;;-139.96;38.26
7906;BME280;13291;40.472;-3.878;2023-06-26T07:26:03;52947.97;;;-139.96;38.37
7906;BME280;13291;40.472;-3.878;2023-06-26T07:28:30;52913.97;;;-139.96;38.55
7906;BME280;13291;40.472;-3.878;2023-06-26T07:30:57;52933.97;;;-139.96;38.59
7906;BME280;13291;40.472;-3.878;2023-06-26T07:33:23;52935.97;;;-139.96;38.50
7906;BME280;13291;40.472;-3.878;2023-06-26T07:35:52;52927.97;;;-139.96;38.30
7906;BME280;13291;40.472;-3.878;2023-06-26T07:38:19;52943.97;;;-139.96;38.33
7906;BME280;13291;40.472;-3.878;2023-06-26T07:40:46;52913.97;;;-139.96;38.11
7906;BME280;13291;40.472;-3.878;2023-06-26T07:43:14;52935.97;;;-139.96;37.90
7906;BME280;13291;40.472;-3.878;2023-06-26T07:45:41;52917.97;;;-139.96;38.10
7906;BME280;13291;40.472;-3.878;2023-06-26T07:48:08;52917.97;;;-139.96;38.28
7906;BME280;13291;40.472;-3.878;2023-06-26T07:50:35;52921.97;;;-139.96;38.80
7906;BME280;13291;40.472;-3.878;2023-06-26T07:53:02;52917.97;;;-139.96;38.48
7906;BME280;13291;40.472;-3.878;2023-06-26T07:55:30;52945.97;;;-139.96;38.47
7906;BME280;13291;40.472;-3.878;2023-06-26T07:57:57;52937.97;;;-139.96;38.64
7906;BME280;13291;40.472;-3.878;2023-06-26T08:00:26;52933.97;;;-139.96;38.50
7906;BME280;13291;40.472;-3.878;2023-06-26T08:02:53;52925.97;;;-139.96;38.34
7906;BME280;13291;40.472;-3.878;2023-06-26T08:05:20;52931.97;;;-139.96;38.71
7906;BME280;13291;40.472;-3.878;2023-06-26T08:07:47;52921.97;;;-139.96;38.88
7906;BME280;13291;40.472;-3.878;2023-06-26T08:10:13;52877.97;;;-139.96;38.80
7906;BME280;13291;40.472;-3.878;2023-06-26T08:12:40;52919.97;;;-139.96;38.70
7906;BME280;13291;40.472;-3.878;2023-06-26T08:15:10;52925.97;;;-139.96;38.91
7906;BME280;13291;40.472;-3.878;2023-06-26T08:17:38;52913.97;;;-139.96;39.24
7906;BME280;13291;40.472;-3.878;2023-06-26T08:20:06;52929.97;;;-139.96;39.31
7906;BME280;13291;40.472;-3.878;2023-06-26T08:22:34;52933.97;;;-139.96;38.60
7906;BME280;13291;40.472;-3.878;2023-06-26T08:25:02;52939.97;;;-139.96;38.02
7906;BME280;13291;40.472;-3.878;2023-06-26T08:27:29;52915.97;;;-139.96;38.33
7906;BME280;13291;40.472;-3.878;2023-06-26T08:29:56;52907.97;;;-139.96;38.25
7906;BME280;13291;40.472;-3.878;2023-06-26T08:32:24;52925.97;;;-139.96;38.26
7906;BME280;13291;40.472;-3.878;2023-06-26T08:34:52;52911.97;;;-139.96;38.75
7906;BME280;13291;40.472;-3.878;2023-06-26T08:37:19;52911.97;;;-139.96;38.52
7906;BME280;13291;40.472;-3.878;2023-06-26T08:39:46;52905.97;;;-139.96;38.28
7906;BME280;13291;40.472;-3.878;2023-06-26T08:42:13;52891.97;;;-139.96;38.03
7906;BME280;13291;40.472;-3.878;2023-06-26T08:44:40;52917.97;;;-139.96;37.77
7906;BME280;13291;40.472;-3.878;2023-06-26T08:47:07;52921.97;;;-139.96;37.69
7906;BME280;13291;40.472;-3.878;2023-06-26T08:49:40;52913.97;;;-139.96;36.77
7906;BME280;13291;40.472;-3.878;2023-06-26T08:52:16;52913.97;;;-139.96;36.62
7906;BME280;13291;40.472;-3.878;2023-06-26T08:54:46;52875.97;;;-139.96;36.26
7906;BME280;13291;40.472;-3.878;2023-06-26T08:57:16;52889.97;;;-139.96;36.32
7906;BME280;13291;40.472;-3.878;2023-06-26T08:59:44;52859.97;;;-139.96;35.92
7906;BME280;13291;40.472;-3.878;2023-06-26T09:02:12;52899.97;;;-139.96;36.17
7906;BME280;13291;40.472;-3.878;2023-06-26T09:04:40;52889.97;;;-139.96;35.07
7906;BME280;13291;40.472;-3.878;2023-06-26T09:07:07;52907.97;;;-139.96;35.17
7906;BME280;13291;40.472;-3.878;2023-06-26T09:09:36;52891.97;;;-139.96;35.35
7906;BME280;13291;40.472;-3.878;2023-06-26T09:12:04;52887.97;;;-139.96;34.62
7906;BME280;13291;40.472;-3.878;2023-06-26T09:14:31;52905.97;;;-139.96;35.52
7906;BME280;13291;40.472;-3.878;2023-06-26T09:16:58;52917.97;;;-139.96;34.52
7906;BME280;13291;40.472;-3.878;2023-06-26T09:19:25;52891.97;;;-139.96;34.59
7906;BME280;13291;40.472;-3.878;2023-06-26T09:21:52;52901.97;;;-139.96;34.55
7906;BME280;13291;40.472;-3.878;2023-06-26T09:24:20;52889.97;;;-139.96;34.92
7906;BME280;13291;40.472;-3.878;2023-06-26T09:26:49;52867.97;;;-139.96;34.66
7906;BME280;13291;40.472;-3.878;2023-06-26T09:29:17;52901.97;;;-139.96;35.30
7906;BME280;13291;40.472;-3.878;2023-06-26T09:31:44;52885.97;;;-139.96;33.78
7906;BME280;13291;40.472;-3.878;2023-06-26T09:34:11;52867.97;;;-139.96;33.88
7906;BME280;13291;40.472;-3.878;2023-06-26T09:36:38;52901.97;;;-139.96;34.18
7906;BME280;13291;40.472;-3.878;2023-06-26T09:39:08;52905.97;;;-139.96;33.75
7906;BME280;13291;40.472;-3.878;2023-06-26T09:41:37;52899.97;;;-139.96;33.74
7906;BME280;13291;40.472;-3.878;2023-06-26T09:44:06;52879.97;;;-139.96;34.45
7906;BME280;13291;40.472;-3.878;2023-06-26T09:46:33;52889.97;;;-139.96;34.38
7906;BME280;13291;40.472;-3.878;2023-06-26T09:49:04;52877.97;;;-139.96;34.45
7906;BME280;13291;40.472;-3.878;2023-06-26T09:51:32;52893.97;;;-139.96;34.04
7906;BME280;13291;40.472;-3.878;2023-06-26T09:53:59;52883.97;;;-139.96;34.20
7906;BME280;13291;40.472;-3.878;2023-06-26T09:56:27;52865.97;;;-139.96;34.07
7906;BME280;13291;40.472;-3.878;2023-06-26T09:58:55;52867.97;;;-139.96;34.37
7906;BME280;13291;40.472;-3.878;2023-06-26T10:01:24;52885.97;;;-139.96;33.86
7906;BME280;13291;40.472;-3.878;2023-06-26T10:03:51;52845.97;;;-139.96;35.34
7906;BME280;13291;40.472;-3.878;2023-06-26T10:06:19;52837.97;;;-139.96;35.55
7906;BME280;13291;40.472;-3.878;2023-06-26T10:08:49;52901.97;;;-139.96;35.38
7906;BME280;13291;40.472;-3.878;2023-06-26T10:11:19;52891.97;;;-139.96;35.99
7906;BME280;13291;40.472;-3.878;2023-06-26T10:13:50;52893.97;;;-139.96;34.65
7906;BME280;13291;40.472;-3.878;2023-06-26T10:16:21;52853.97;;;-139.96;34.83
7906;BME280;13291;40.472;-3.878;2023-06-26T10:18:51;52879.97;;;-139.96;34.16
7906;BME280;13291;40.472;-3.878;2023-06-26T10:21:20;52853.97;;;-139.96;34.16
7906;BME280;13291;40.472;-3.878;2023-06-26T10:23:49;52877.97;;;-139.96;33.74
7906;BME280;13291;40.472;-3.878;2023-06-26T10:26:19;52853.97;;;-139.96;33.98
7906;BME280;13291;40.472;-3.878;2023-06-26T10:28:48;52873.97;;;-139.96;33.46
7906;BME280;13291;40.472;-3.878;2023-06-26T10:31:19;52857.97;;;-139.96;33.56
7906;BME280;13291;40.472;-3.878;2023-06-26T10:33:49;52883.97;;;-139.96;34.57
7906;BME280;13291;40.472;-3.878;2023-06-26T10:36:17;52853.97;;;-139.96;33.69
7906;BME280;13291;40.472;-3.878;2023-06-26T10:38:52;52859.97;;;-139.96;33.08
7906;BME280;13291;40.472;-3.878;2023-06-26T10:41:20;52883.97;;;-139.96;32.70
7906;BME280;13291;40.472;-3.878;2023-06-26T10:43:55;52847.97;;;-139.96;33.71
7906;BME280;13291;40.472;-3.878;2023-06-26T10:46:33;52853.97;;;-139.96;32.30
7906;BME280;13291;40.472;-3.878;2023-06-26T10:49:03;52843.97;;;-139.96;31.85
7906;BME280;13291;40.472;-3.878;2023-06-26T10:51:31;52839.97;;;-139.96;32.06
7906;BME280;13291;40.472;-3.878;2023-06-26T10:53:58;52877.97;;;-139.96;32.83
7906;BME280;13291;40.472;-3.878;2023-06-26T10:56:41;52875.97;;;-139.96;32.82
7906;BME280;13291;40.472;-3.878;2023-06-26T10:59:15;52845.97;;;-139.96;32.84
7906;BME280;13291;40.472;-3.878;2023-06-26T11:01:43;52851.97;;;-139.96;32.14
7906;BME280;13291;40.472;-3.878;2023-06-26T11:04:13;52829.94;;;-139.96;32.36
7906;BME280;13291;40.472;-3.878;2023-06-26T11:06:45;52837.97;;;-139.96;32.89
7906;BME280;13291;40.472;-3.878;2023-06-26T11:09:14;52845.97;;;-139.96;33.46
7906;BME280;13291;40.472;-3.878;2023-06-26T11:11:58;52821.94;;;-139.96;33.25
7906;BME280;13291;40.472;-3.878;2023-06-26T11:14:27;52869.97;;;-139.96;33.15
7906;BME280;13291;40.472;-3.878;2023-06-26T11:16:55;52827.94;;;-139.96;33.56
7906;BME280;13291;40.472;-3.878;2023-06-26T11:19:25;52815.94;;;-139.96;32.85
7906;BME280;13291;40.472;-3.878;2023-06-26T11:21:52;52831.97;;;-139.96;32.29
7906;BME280;13291;40.472;-3.878;2023-06-26T11:24:24;52813.94;;;-139.96;31.76
7906;BME280;13291;40.472;-3.878;2023-06-26T11:26:52;52857.97;;;-139.96;31.50
7906;BME280;13291;40.472;-3.878;2023-06-26T11:29:19;52833.97;;;-139.96;31.92
7906;BME280;13291;40.472;-3.878;2023-06-26T11:31:46;52809.94;;;-139.96;31.51
7906;BME280;13291;40.472;-3.878;2023-06-26T11:34:13;52853.97;;;-139.96;31.46
7906;BME280;13291;40.472;-3.878;2023-06-26T11:36:42;52829.94;;;-139.96;31.16
7906;BME280;13291;40.472;-3.878;2023-06-26T11:39:12;52841.97;;;-139.96;30.84
7906;BME280;13291;40.472;-3.878;2023-06-26T11:41:40;52825.94;;;-139.96;32.16
7906;BME280;13291;40.472;-3.878;2023-06-26T11:44:08;52817.94;;;-139.96;30.89
7906;BME280;13291;40.472;-3.878;2023-06-26T11:46:35;52823.94;;;-139.96;31.04
7906;BME280;13291;40.472;-3.878;2023-06-26T11:49:03;52813.94;;;-139.96;30.17
7906;BME280;13291;40.472;-3.878;2023-06-26T11:51:30;52811.94;;;-139.96;30.28
7906;BME280;13291;40.472;-3.878;2023-06-26T11:54:00;52849.97;;;-139.96;31.78
7906;BME280;13291;40.472;-3.878;2023-06-26T11:56:28;52825.94;;;-139.96;31.09
7906;BME280;13291;40.472;-3.878;2023-06-26T11:58:56;52809.94;;;-139.96;32.21
7906;BME280;13291;40.472;-3.878;2023-06-26T12:01:23;52813.94;;;-139.96;31.93
7906;BME280;13291;40.472;-3.878;2023-06-26T12:03:50;52809.94;;;-139.96;33.05
7906;BME280;13291;40.472;-3.878;2023-06-26T12:06:18;52783.94;;;-139.96;31.25
7906;BME280;13291;40.472;-3.878;2023-06-26T12:08:45;52797.94;;;-139.96;30.58
7906;BME280;13291;40.472;-3.878;2023-06-26T12:11:14;52807.94;;;-139.96;30.22
7906;BME280;13291;40.472;-3.878;2023-06-26T12:13:41;52819.94;;;-139.96;29.55
7906;BME280;13291;40.472;-3.878;2023-06-26T12:16:08;52795.94;;;-139.96;29.83
7906;BME280;13291;40.472;-3.878;2023-06-26T12:18:35;52819.94;;;-139.96;30.25
7906;BME280;13291;40.472;-3.878;2023-06-26T12:21:02;52807.94;;;-139.96;30.25
7906;BME280;13291;40.472;-3.878;2023-06-26T12:23:32;52773.94;;;-139.96;29.94
7906;BME280;13291;40.472;-3.878;2023-06-26T12:29:01;52757.94;;;-139.96;29.92
7906;BME280;13291;40.472;-3.878;2023-06-26T12:31:31;52797.94;;;-139.96;30.78
7906;BME280;13291;40.472;-3.878;2023-06-26T12:33:58;52789.94;;;-139.96;31.69
7906;BME280;13291;40.472;-3.878;2023-06-26T12:36:25;52769.94;;;-139.96;30.58
7906;BME280;13291;40.472;-3.878;2023-06-26T12:38:54;52793.94;;;-139.96;31.20
7906;BME280;13291;40.472;-3.878;2023-06-26T12:41:24;52759.94;;;-139.96;30.23
7906;BME280;13291;40.472;-3.878;2023-06-26T12:43:56;52785.94;;;-139.96;29.78
7906;BME280;13291;40.472;-3.878;2023-06-26T12:46:33;52793.94;;;-139.96;29.17